Time;durP1;ratioP1;P1;durP2;ratioP2;P2;SDS_P1;SDS_P2;PMS_P1;PMS_P2;Temp;Humidity;BMP_temperature;BMP_pressure;BME280_temperature;BME280_humidity;BME280_pressure;Samples;Min_cycle;Max_cycle;Signal;HPM_P1;HPM_P2
2022/08/01 00:00:47;;;;;;;3.55;0.80;;;;;;;20.98;62.26;101340.03;4804765;29;20050;-48
2022/08/01 00:03:13;;;;;;;8.25;1.20;;;;;;;20.93;60.78;101340.00;4804207;29;20038;-47
2022/08/01 00:05:41;;;;;;;2.83;0.70;;;;;;;21.10;60.72;101335.25;4804146;29;20038;-50
2022/08/01 00:08:07;;;;;;;1.88;0.70;;;;;;;21.20;61.51;101343.44;4804434;29;20034;-47
2022/08/01 00:10:34;;;;;;;3.22;0.70;;;;;;;20.69;61.28;101336.88;4808752;29;20073;-50
2022/08/01 00:13:00;;;;;;;3.33;1.25;;;;;;;20.69;61.41;101334.97;4822239;29;20033;-50
2022/08/01 00:15:26;;;;;;;4.15;0.77;;;;;;;20.76;61.91;101332.84;4822500;29;20067;-50
2022/08/01 00:17:52;;;;;;;2.90;0.90;;;;;;;21.09;60.91;101334.38;4823022;29;20399;-50
2022/08/01 00:20:18;;;;;;;2.10;0.70;;;;;;;21.09;60.76;101333.56;4823011;29;20041;-51
2022/08/01 00:22:44;;;;;;;0.95;0.60;;;;;;;20.78;61.43;101330.69;4823607;29;20480;-51
2022/08/01 00:25:11;;;;;;;3.80;0.70;;;;;;;20.71;62.12;101340.13;4822197;29;20041;-47
2022/08/01 00:27:37;;;;;;;2.47;0.60;;;;;;;21.16;61.77;101342.34;4812558;29;20045;-49
2022/08/01 00:30:04;;;;;;;1.90;0.57;;;;;;;20.66;60.79;101332.78;4804110;29;20400;-50
2022/08/01 00:32:32;;;;;;;5.15;1.05;;;;;;;20.66;62.06;101330.06;4804576;29;20026;-47
2022/08/01 00:34:58;;;;;;;0.50;0.40;;;;;;;20.70;60.95;101339.31;4803863;29;20054;-48
2022/08/01 00:37:24;;;;;;;1.75;0.80;;;;;;;20.07;62.20;101351.00;4804352;29;20066;-51
2022/08/01 00:39:50;;;;;;;3.55;1.00;;;;;;;19.96;63.21;101342.75;4804195;29;20110;-50
2022/08/01 00:42:16;;;;;;;2.00;1.08;;;;;;;19.81;63.79;101337.13;4803957;29;20088;-51
2022/08/01 00:44:43;;;;;;;2.80;1.38;;;;;;;19.96;64.00;101340.03;4804140;29;20154;-50
2022/08/01 00:47:09;;;;;;;2.90;0.90;;;;;;;20.25;63.39;101340.56;4804163;29;20496;-47
2022/08/01 00:49:35;;;;;;;1.88;0.95;;;;;;;20.21;63.30;101331.31;4804006;29;20588;-49
2022/08/01 00:52:04;;;;;;;2.88;0.90;;;;;;;20.24;63.28;101332.69;4822390;29;20167;-50
2022/08/01 00:54:31;;;;;;;2.70;1.10;;;;;;;20.48;62.89;101328.56;4820810;29;20534;-50
2022/08/01 00:56:58;;;;;;;5.07;1.95;;;;;;;20.56;61.83;101332.72;4822807;29;20039;-48
2022/08/01 00:59:26;;;;;;;2.63;1.10;;;;;;;20.40;62.23;101337.16;4823756;29;20441;-50
2022/08/01 01:01:52;;;;;;;2.17;0.95;;;;;;;19.90;62.84;101337.53;4825513;29;20026;-50
2022/08/01 01:04:18;;;;;;;1.20;1.05;;;;;;;20.01;63.85;101333.81;4824862;29;20515;-49
2022/08/01 01:07:15;;;;;;;4.90;1.40;;;;;;;20.03;64.05;101326.22;4820461;29;20114;-50
2022/08/01 01:10:37;;;;;;;5.30;1.73;;;;;;;19.96;64.37;101331.06;4807227;29;20030;-50
2022/08/01 01:13:23;;;;;;;2.03;1.10;;;;;;;19.87;64.15;101338.00;4721039;30;20040;-50
2022/08/01 01:16:00;;;;;;;3.78;1.42;;;;;;;19.99;63.83;101334.09;4733295;30;20506;-51
2022/08/01 01:18:35;;;;;;;2.50;1.52;;;;;;;19.59;65.24;101326.31;4792316;29;20084;-47
2022/08/01 01:21:19;;;;;;;2.10;1.27;;;;;;;19.90;64.49;101335.63;4807085;29;20049;-49
2022/08/01 01:24:03;;;;;;;3.40;1.20;;;;;;;19.45;65.14;101342.16;4790463;29;20039;-50
2022/08/01 01:26:57;;;;;;;2.87;1.23;;;;;;;19.45;64.99;101333.19;4807554;29;20484;-47
2022/08/01 01:29:33;;;;;;;3.55;1.10;;;;;;;19.45;65.37;101325.84;4812284;29;20042;-50
2022/08/01 01:32:33;;;;;;;1.95;1.10;;;;;;;19.29;66.25;101332.16;4806226;29;20470;-49
2022/08/01 01:35:06;;;;;;;3.08;1.13;;;;;;;19.34;66.02;101324.09;4806693;29;20041;-49
2022/08/01 01:37:34;;;;;;;2.45;1.40;;;;;;;18.94;66.62;101318.97;4813575;29;20194;-50
2022/08/01 01:40:04;;;;;;;2.72;1.27;;;;;;;18.97;66.72;101316.53;4817771;29;20504;-49
2022/08/01 01:42:32;;;;;;;2.85;1.13;;;;;;;19.22;66.18;101310.66;4812208;29;20036;-49
2022/08/01 01:45:00;;;;;;;1.75;1.20;;;;;;;19.28;66.17;101316.16;4807514;29;20034;-50
2022/08/01 01:47:27;;;;;;;2.47;1.30;;;;;;;19.06;66.40;101311.53;4807828;29;20034;-49
2022/08/01 01:49:57;;;;;;;4.13;1.50;;;;;;;19.36;66.60;101326.53;4806153;29;20441;-49
2022/08/01 01:52:24;;;;;;;5.97;1.52;;;;;;;18.97;67.36;101324.69;4807001;29;20038;-49
2022/08/01 01:54:52;;;;;;;2.45;1.10;;;;;;;18.86;68.13;101332.94;4815972;29;20054;-50
2022/08/01 01:57:20;;;;;;;2.78;1.70;;;;;;;19.07;67.65;101329.44;4805726;29;20064;-51
2022/08/01 01:59:47;;;;;;;6.40;1.95;;;;;;;18.94;67.34;101319.78;4805517;29;20023;-49
2022/08/01 02:02:16;;;;;;;3.90;1.90;;;;;;;19.10;67.72;101322.66;4806188;29;20115;-51
2022/08/01 02:04:44;;;;;;;5.35;1.60;;;;;;;19.30;66.46;101324.84;4809557;29;20034;-52
2022/08/01 02:07:14;;;;;;;4.78;2.30;;;;;;;19.34;66.18;101328.69;4821733;29;20102;-50
2022/08/01 02:09:42;;;;;;;4.43;2.20;;;;;;;19.26;66.28;101330.75;4824041;29;20387;-51
2022/08/01 02:12:12;;;;;;;2.42;1.77;;;;;;;19.34;66.21;101321.38;4816695;29;20065;-53
2022/08/01 02:14:39;;;;;;;3.00;1.77;;;;;;;19.49;65.43;101327.00;4805602;29;20037;-53
2022/08/01 02:17:06;;;;;;;3.53;1.65;;;;;;;19.60;65.31;101322.53;4806067;29;20092;-55
2022/08/01 02:19:35;;;;;;;3.53;1.70;;;;;;;19.58;65.15;101319.22;4823527;29;20031;-55
2022/08/01 02:22:27;;;;;;;3.13;1.50;;;;;;;19.83;64.66;101316.00;4821167;29;20026;-54
2022/08/01 02:25:03;;;;;;;1.95;1.30;;;;;;;20.07;64.19;101318.38;4809584;29;20053;-53
2022/08/01 02:28:03;;;;;;;3.85;1.95;;;;;;;19.77;64.25;101328.69;4806459;29;20043;-54
2022/08/01 02:30:36;;;;;;;2.80;1.70;;;;;;;19.63;64.81;101326.63;4805141;29;20503;-54
2022/08/01 02:33:06;;;;;;;2.38;1.80;;;;;;;19.31;65.95;101324.59;4805829;29;20410;-53
2022/08/01 02:35:38;;;;;;;4.32;1.77;;;;;;;19.65;64.76;101325.28;4805598;29;20029;-53
2022/08/01 02:38:06;;;;;;;5.10;2.03;;;;;;;19.62;64.80;101322.28;4809718;29;20042;-55
2022/08/01 02:40:37;;;;;;;3.75;2.00;;;;;;;19.74;64.60;101323.78;4812589;29;20038;-54
2022/08/01 02:43:08;;;;;;;2.88;2.20;;;;;;;19.38;65.44;101324.41;4805886;29;20114;-54
2022/08/01 02:45:37;;;;;;;3.08;1.95;;;;;;;18.72;67.81;101325.16;4805090;29;20031;-53
2022/08/01 02:48:14;;;;;;;4.85;2.08;;;;;;;18.90;67.45;101334.06;4805591;29;20445;-55
2022/08/01 02:50:45;;;;;;;4.65;2.33;;;;;;;18.73;68.15;101337.63;4805434;29;20030;-53
2022/08/01 02:53:13;;;;;;;3.38;2.05;;;;;;;18.81;67.74;101338.28;4805560;29;20049;-52
2022/08/01 02:55:42;;;;;;;4.70;2.15;;;;;;;18.39;69.09;101333.25;4807856;29;20035;-55
2022/08/01 02:58:12;;;;;;;6.35;2.42;;;;;;;18.34;69.63;101338.59;4823221;29;20054;-54
2022/08/01 03:00:40;;;;;;;4.72;2.53;;;;;;;18.40;69.57;101334.91;4817268;29;20030;-53
2022/08/01 03:03:08;;;;;;;3.80;2.50;;;;;;;18.19;70.98;101336.44;4818876;29;20031;-53
2022/08/01 03:05:35;;;;;;;4.28;2.70;;;;;;;18.03;71.45;101339.94;4821866;29;20042;-52
2022/08/01 03:08:03;;;;;;;5.57;2.60;;;;;;;17.93;71.48;101344.13;4822942;29;20396;-56
2022/08/01 03:10:32;;;;;;;10.02;2.80;;;;;;;17.92;71.69;101344.34;4823243;29;20168;-54
2022/08/01 03:13:02;;;;;;;4.47;2.58;;;;;;;17.61;72.92;101354.56;4816131;29;20496;-54
2022/08/01 03:15:31;;;;;;;5.05;2.80;;;;;;;17.54;73.66;101353.84;4808051;29;20034;-54
2022/08/01 03:18:01;;;;;;;3.90;2.55;;;;;;;17.40;74.09;101350.63;4823618;29;20030;-54
2022/08/01 03:20:29;;;;;;;7.43;3.35;;;;;;;17.56;73.18;101359.88;4835431;29;20551;-55
2022/08/01 03:22:57;;;;;;;4.88;3.00;;;;;;;17.43;73.89;101357.41;4815037;29;20069;-55
2022/08/01 03:25:26;;;;;;;5.78;3.03;;;;;;;17.36;74.14;101356.75;4820584;29;20095;-54
2022/08/01 03:27:58;;;;;;;5.35;2.95;;;;;;;17.31;74.52;101357.44;4820385;29;20049;-54
2022/08/01 03:30:26;;;;;;;5.50;2.85;;;;;;;17.08;75.32;101350.19;4816311;29;20468;-54
2022/08/01 03:32:53;;;;;;;6.47;2.72;;;;;;;17.24;74.81;101356.75;4822629;29;20392;-54
2022/08/01 03:35:22;;;;;;;4.03;2.60;;;;;;;17.08;75.47;101363.72;4815782;29;20182;-54
2022/08/01 03:37:52;;;;;;;5.60;2.63;;;;;;;16.94;76.05;101370.44;4832691;29;20102;-54
2022/08/01 03:40:25;;;;;;;7.57;2.72;;;;;;;16.88;76.57;101374.09;4820334;29;20057;-54
2022/08/01 03:43:02;;;;;;;3.30;2.30;;;;;;;17.06;76.01;101368.53;4823084;29;20030;-54
2022/08/01 03:45:35;;;;;;;4.38;2.20;;;;;;;16.96;75.85;101368.31;4821810;29;20078;-54
2022/08/01 03:48:09;;;;;;;4.95;2.45;;;;;;;16.94;75.71;101365.03;4811591;29;20046;-52
2022/08/01 03:50:39;;;;;;;5.47;3.08;;;;;;;17.14;75.36;101362.75;4821906;29;20073;-53
2022/08/01 03:53:09;;;;;;;6.05;3.00;;;;;;;16.99;75.91;101367.84;4806472;29;20671;-52
2022/08/01 03:55:38;;;;;;;4.95;2.95;;;;;;;16.88;76.58;101368.69;4804026;29;20035;-51
2022/08/01 03:58:05;;;;;;;4.95;3.00;;;;;;;16.87;76.36;101372.41;4814960;29;20058;-52
2022/08/01 04:00:32;;;;;;;5.65;2.92;;;;;;;16.93;76.01;101373.34;4821444;29;20043;-53
2022/08/01 04:02:59;;;;;;;5.38;2.47;;;;;;;16.88;76.13;101372.19;4822715;29;20058;-52
2022/08/01 04:05:25;;;;;;;4.03;2.60;;;;;;;16.84;76.47;101376.44;4810485;29;20130;-52
2022/08/01 04:07:55;;;;;;;3.30;2.17;;;;;;;17.02;75.42;101374.66;4822790;29;20045;-53
2022/08/01 04:10:22;;;;;;;5.15;2.90;;;;;;;17.05;75.51;101376.91;4812704;29;20515;-54
2022/08/01 04:12:49;;;;;;;5.20;2.38;;;;;;;16.99;75.42;101386.78;4804313;29;20390;-53
2022/08/01 04:15:15;;;;;;;5.70;2.90;;;;;;;17.18;74.83;101381.25;4816433;29;20034;-53
2022/08/01 04:17:42;;;;;;;5.70;2.35;;;;;;;16.94;75.60;101392.06;4822770;29;20208;-53
2022/08/01 04:20:09;;;;;;;2.53;1.90;;;;;;;16.89;75.65;101387.38;4820303;29;20039;-52
2022/08/01 04:22:35;;;;;;;4.50;2.33;;;;;;;16.94;75.69;101402.88;4822431;29;20034;-53
2022/08/01 04:25:08;;;;;;;5.25;2.30;;;;;;;16.98;75.36;101406.75;4819441;29;20404;-53
2022/08/01 04:27:38;;;;;;;3.17;2.20;;;;;;;16.86;75.75;101405.91;4825519;29;20091;-52
2022/08/01 04:30:06;;;;;;;3.90;2.47;;;;;;;16.82;75.90;101413.69;4825183;29;20026;-53
2022/08/01 04:32:37;;;;;;;3.65;1.88;;;;;;;16.74;76.49;101414.03;4825913;29;20552;-53
2022/08/01 04:35:07;;;;;;;3.03;2.42;;;;;;;16.85;76.18;101425.91;4824577;29;20061;-53
2022/08/01 04:37:36;;;;;;;4.97;2.63;;;;;;;16.67;76.67;101434.91;4825578;29;20527;-53
2022/08/01 04:40:07;;;;;;;2.72;2.10;;;;;;;16.50;77.76;101428.53;4825239;29;20480;-52
2022/08/01 04:42:34;;;;;;;4.07;2.40;;;;;;;16.35;78.15;101418.13;4825709;29;20030;-50
2022/08/01 04:45:00;;;;;;;4.90;2.00;;;;;;;16.50;77.77;101423.13;4821906;29;20042;-53
2022/08/01 04:47:28;;;;;;;4.20;2.30;;;;;;;16.71;77.00;101432.56;4816558;29;20030;-54
2022/08/01 04:49:56;;;;;;;9.65;3.28;;;;;;;16.72;76.79;101424.25;4816233;29;20146;-53
2022/08/01 04:52:22;;;;;;;5.55;2.88;;;;;;;16.45;77.86;101431.91;4824133;29;20046;-53
2022/08/01 04:54:49;;;;;;;3.90;2.40;;;;;;;16.56;77.46;101433.81;4823039;29;20030;-53
2022/08/01 04:57:15;;;;;;;5.63;2.60;;;;;;;16.51;77.79;101425.59;4826166;29;20054;-53
2022/08/01 04:59:43;;;;;;;2.95;2.40;;;;;;;16.55;77.28;101439.47;4824602;29;20030;-53
2022/08/01 05:02:19;;;;;;;4.10;2.72;;;;;;;16.62;77.21;101441.00;4823950;29;20404;-53
2022/08/01 05:04:46;;;;;;;5.20;2.25;;;;;;;16.55;77.39;101439.47;4824421;29;20041;-53
2022/08/01 05:07:13;;;;;;;3.42;2.67;;;;;;;16.61;77.26;101443.94;4824647;29;20503;-53
2022/08/01 05:09:46;;;;;;;2.85;2.13;;;;;;;16.37;78.33;101451.94;4824549;29;20083;-53
2022/08/01 05:12:12;;;;;;;5.82;3.53;;;;;;;16.46;78.21;101449.75;4824451;29;20417;-53
2022/08/01 05:14:39;;;;;;;3.53;2.70;;;;;;;16.63;77.05;101441.81;4823420;29;20155;-55
2022/08/01 05:17:07;;;;;;;4.93;2.95;;;;;;;16.51;77.45;101452.59;4824623;29;20464;-54
2022/08/01 05:19:35;;;;;;;4.28;2.70;;;;;;;16.63;76.90;101453.44;4823836;29;20085;-53
2022/08/01 05:22:05;;;;;;;5.22;3.20;;;;;;;16.68;76.83;101449.25;4823419;29;20041;-53
2022/08/01 05:24:32;;;;;;;6.30;3.58;;;;;;;16.77;76.40;101446.00;4819960;29;20026;-52
2022/08/01 05:26:59;;;;;;;11.13;3.55;;;;;;;16.79;76.19;101438.47;4823106;29;20042;-54
2022/08/01 05:29:26;;;;;;;6.32;3.90;;;;;;;16.72;76.53;101442.34;4824800;29;20039;-54
2022/08/01 05:31:53;;;;;;;4.35;3.38;;;;;;;16.56;77.37;101449.22;4823937;29;20452;-52
2022/08/01 05:34:20;;;;;;;6.90;3.88;;;;;;;16.63;76.77;101456.16;4824813;29;20026;-53
2022/08/01 05:36:47;;;;;;;4.13;3.10;;;;;;;16.57;77.12;101448.97;4823674;29;20042;-53
2022/08/01 05:39:14;;;;;;;9.00;4.00;;;;;;;16.49;77.67;101453.88;4824301;29;20582;-54
2022/08/01 05:41:41;;;;;;;6.15;3.47;;;;;;;16.36;77.90;101450.31;4823886;29;20030;-53
2022/08/01 05:44:09;;;;;;;7.32;3.63;;;;;;;16.37;78.05;101451.13;4823661;29;20037;-53
2022/08/01 05:46:36;;;;;;;5.72;4.20;;;;;;;16.26;78.75;101460.00;4820691;29;20070;-54
2022/08/01 05:49:04;;;;;;;7.20;4.38;;;;;;;16.34;78.32;101463.22;4810143;29;20838;-53
2022/08/01 05:51:30;;;;;;;9.57;4.63;;;;;;;16.22;78.96;101464.25;4823704;29;20528;-54
2022/08/01 05:53:57;;;;;;;5.65;3.97;;;;;;;16.35;78.46;101458.66;4823457;29;20507;-54
2022/08/01 05:56:23;;;;;;;8.88;4.40;;;;;;;16.38;78.34;101452.81;4821421;29;20035;-53
2022/08/01 05:58:50;;;;;;;8.32;3.70;;;;;;;16.43;78.14;101449.38;4823290;29;20031;-52
2022/08/01 06:01:18;;;;;;;6.32;4.25;;;;;;;16.41;78.61;101452.31;4823590;29;20111;-54
2022/08/01 06:03:44;;;;;;;8.77;4.45;;;;;;;16.57;78.06;101462.50;4823263;29;20523;-52
2022/08/01 06:06:11;;;;;;;5.40;4.45;;;;;;;16.49;78.06;101453.88;4823531;29;20062;-53
2022/08/01 06:08:37;;;;;;;9.88;4.53;;;;;;;16.44;78.17;101462.69;4823999;29;20121;-54
2022/08/01 06:11:03;;;;;;;6.93;4.13;;;;;;;16.21;79.36;101451.78;4823491;29;20046;-53
2022/08/01 06:13:30;;;;;;;6.43;4.00;;;;;;;16.26;79.47;101460.00;4821510;29;20030;-53
2022/08/01 06:15:56;;;;;;;7.35;4.68;;;;;;;16.39;78.51;101461.72;4823263;29;20046;-53
2022/08/01 06:18:22;;;;;;;7.72;4.35;;;;;;;16.36;78.48;101461.13;4824402;29;20091;-54
2022/08/01 06:20:48;;;;;;;8.88;4.13;;;;;;;16.44;77.65;101461.88;4822091;29;20031;-53
2022/08/01 06:23:15;;;;;;;4.70;4.00;;;;;;;16.26;78.82;101470.81;4822895;29;20037;-53
2022/08/01 06:25:43;;;;;;;10.10;4.65;;;;;;;16.24;78.69;101470.22;4823734;29;20395;-53
2022/08/01 06:28:09;;;;;;;9.68;4.60;;;;;;;16.27;78.67;101456.28;4821995;29;20125;-53
2022/08/01 06:30:36;;;;;;;6.80;4.38;;;;;;;16.15;79.34;101467.00;4823266;29;20384;-52
2022/08/01 06:33:02;;;;;;;7.50;4.32;;;;;;;16.16;79.53;101465.13;4824148;29;20480;-53
2022/08/01 06:35:29;;;;;;;7.20;4.10;;;;;;;16.06;79.92;101471.09;4822900;29;20034;-52
2022/08/01 06:37:56;;;;;;;6.75;4.45;;;;;;;16.15;79.40;101474.28;4821933;29;20288;-52
2022/08/01 06:40:23;;;;;;;6.43;4.32;;;;;;;16.07;79.59;101478.97;4823254;29;20103;-56
2022/08/01 06:42:50;;;;;;;9.98;4.18;;;;;;;16.20;79.19;101469.03;4823671;29;20114;-53
2022/08/01 06:45:16;;;;;;;8.73;4.53;;;;;;;16.27;78.49;101472.50;4817880;29;20030;-52
2022/08/01 06:47:44;;;;;;;6.95;4.35;;;;;;;16.36;78.21;101461.13;4814865;29;20042;-53
2022/08/01 06:50:11;;;;;;;7.80;4.53;;;;;;;16.32;78.39;101461.81;4805202;29;20038;-54
2022/08/01 06:52:37;;;;;;;6.82;4.80;;;;;;;16.22;78.44;101473.16;4823378;29;20033;-54
2022/08/01 06:55:04;;;;;;;8.00;4.57;;;;;;;16.14;78.86;101467.25;4821593;29;20038;-52
2022/08/01 06:57:30;;;;;;;6.70;4.20;;;;;;;16.24;78.63;101462.13;4823689;29;20034;-53
2022/08/01 06:59:57;;;;;;;6.75;3.97;;;;;;;16.15;78.29;101460.78;4822815;29;20026;-54
2022/08/01 07:02:23;;;;;;;5.30;4.30;;;;;;;16.21;78.28;101465.28;4822525;29;20095;-54
2022/08/01 07:04:49;;;;;;;6.50;3.95;;;;;;;16.29;78.01;101456.88;4823074;29;20044;-53
2022/08/01 07:07:16;;;;;;;7.20;4.03;;;;;;;16.27;77.84;101456.28;4820838;29;20091;-53
2022/08/01 07:09:42;;;;;;;9.85;4.10;;;;;;;16.31;77.90;101447.47;4806288;29;20026;-55
2022/08/01 07:12:09;;;;;;;6.75;4.45;;;;;;;16.12;78.08;101456.69;4810319;29;20035;-53
2022/08/01 07:14:35;;;;;;;4.68;3.60;;;;;;;16.06;78.46;101452.19;4804686;29;20049;-53
2022/08/01 07:17:01;;;;;;;5.70;3.88;;;;;;;16.04;78.12;101455.09;4814266;29;20030;-53
2022/08/01 07:19:28;;;;;;;6.80;4.35;;;;;;;16.11;78.29;101452.34;4823234;29;20517;-54
2022/08/01 07:21:54;;;;;;;5.00;3.40;;;;;;;16.03;78.48;101450.75;4822414;29;20030;-53
2022/08/01 07:24:20;;;;;;;5.65;3.92;;;;;;;16.08;78.21;101452.78;4822897;29;20027;-53
2022/08/01 07:26:48;;;;;;;5.75;3.95;;;;;;;16.08;78.52;101453.59;4822349;29;20098;-53
2022/08/01 07:29:15;;;;;;;8.70;4.60;;;;;;;16.05;78.90;101456.78;4822580;29;20184;-53
2022/08/01 07:31:41;;;;;;;5.88;4.25;;;;;;;15.99;79.36;101456.81;4821295;29;20053;-54
2022/08/01 07:34:07;;;;;;;5.72;4.30;;;;;;;16.05;79.39;101455.94;4822684;29;20060;-52
2022/08/01 07:36:34;;;;;;;7.47;5.22;;;;;;;16.08;78.91;101455.47;4821298;29;20048;-53
2022/08/01 07:39:00;;;;;;;7.18;5.03;;;;;;;16.00;79.25;101455.81;4821966;29;20038;-53
2022/08/01 07:41:26;;;;;;;7.25;4.50;;;;;;;16.06;79.24;101447.63;4821461;29;20442;-54
2022/08/01 07:43:52;;;;;;;7.15;4.32;;;;;;;16.04;78.93;101455.09;4822952;29;20046;-53
2022/08/01 07:46:18;;;;;;;8.60;5.07;;;;;;;16.08;78.81;101459.00;4822058;29;20400;-54
2022/08/01 07:48:45;;;;;;;6.80;4.80;;;;;;;16.02;79.25;101451.81;4821649;29;20050;-53
2022/08/01 07:51:11;;;;;;;13.18;5.53;;;;;;;16.02;79.22;101451.81;4822153;29;20107;-52
2022/08/01 07:53:38;;;;;;;7.85;4.60;;;;;;;16.07;79.16;101461.94;4822430;29;20069;-54
2022/08/01 07:56:06;;;;;;;6.05;4.47;;;;;;;15.98;79.40;101461.41;4822848;29;20026;-52
2022/08/01 07:58:33;;;;;;;6.97;4.93;;;;;;;16.15;78.73;101455.38;4818004;29;20226;-53
2022/08/01 08:00:59;;;;;;;6.88;5.25;;;;;;;16.09;79.04;101462.53;4805150;29;20366;-51
2022/08/01 08:03:26;;;;;;;6.60;4.82;;;;;;;15.98;79.06;101457.88;4806463;29;20027;-53
2022/08/01 08:05:52;;;;;;;7.32;4.82;;;;;;;16.15;78.99;101458.09;4812143;29;20030;-53
2022/08/01 08:08:18;;;;;;;6.68;4.57;;;;;;;16.16;78.82;101448.94;4804121;29;20034;-50
2022/08/01 08:10:45;;;;;;;6.60;4.50;;;;;;;16.14;78.98;101445.63;4805136;29;20057;-53
2022/08/01 08:13:11;;;;;;;7.47;4.30;;;;;;;16.04;79.32;101448.88;4814631;29;20031;-54
2022/08/01 08:15:38;;;;;;;8.23;4.45;;;;;;;16.12;79.12;101445.06;4822332;29;20067;-51
2022/08/01 08:18:04;;;;;;;6.25;4.18;;;;;;;16.22;78.24;101427.25;4818781;29;20039;-53
2022/08/01 08:20:31;;;;;;;6.65;4.07;;;;;;;16.26;78.29;101422.19;4804040;29;20096;-52
2022/08/01 08:23:00;;;;;;;6.53;4.28;;;;;;;16.30;77.60;101428.78;4813664;29;20031;-53
2022/08/01 08:25:28;;;;;;;5.82;4.22;;;;;;;16.39;77.93;101426.59;4822596;29;20031;-53
2022/08/01 08:27:54;;;;;;;7.53;3.67;;;;;;;16.34;77.62;101428.13;4821406;29;20058;-53
2022/08/01 08:30:20;;;;;;;5.35;3.60;;;;;;;16.40;78.00;101423.66;4810757;29;20035;-53
2022/08/01 08:32:47;;;;;;;7.95;4.10;;;;;;;16.68;76.28;101425.72;4819664;29;20477;-53
2022/08/01 08:35:13;;;;;;;5.30;3.38;;;;;;;16.60;76.51;101418.81;4803797;29;20042;-51
2022/08/01 08:37:40;;;;;;;5.50;3.75;;;;;;;16.68;76.56;101424.91;4806477;29;20031;-53
2022/08/01 08:40:07;;;;;;;9.95;3.60;;;;;;;16.51;77.23;101432.88;4810158;29;20031;-54
2022/08/01 08:42:34;;;;;;;6.00;3.58;;;;;;;16.52;77.08;101419.13;4804454;29;20074;-52
2022/08/01 08:45:01;;;;;;;6.97;3.85;;;;;;;16.59;76.61;101430.63;4782432;29;20496;-52
2022/08/01 08:47:31;;;;;;;4.53;3.45;;;;;;;16.59;76.45;101422.53;4834503;29;20034;-54
2022/08/01 08:49:58;;;;;;;6.20;3.33;;;;;;;16.62;76.81;101427.50;4825368;29;20126;-54
2022/08/01 08:52:26;;;;;;;5.88;3.60;;;;;;;16.55;76.68;101429.47;4826032;29;20543;-53
2022/08/01 08:54:53;;;;;;;8.90;3.42;;;;;;;16.54;76.78;101445.91;4820052;29;20047;-53
2022/08/01 08:57:21;;;;;;;6.18;3.60;;;;;;;16.41;77.41;101446.94;4822424;29;20487;-54
2022/08/01 08:59:47;;;;;;;5.10;3.50;;;;;;;16.47;76.89;101442.47;4821264;29;20122;-51
2022/08/01 09:02:14;;;;;;;4.47;3.03;;;;;;;16.58;76.56;101442.50;4824578;29;20476;-54
2022/08/01 09:04:41;;;;;;;5.32;3.30;;;;;;;16.55;76.85;101444.88;4838422;29;20472;-52
2022/08/01 09:07:08;;;;;;;5.15;3.38;;;;;;;16.27;77.94;101449.00;4804054;29;20439;-53
2022/08/01 09:09:34;;;;;;;7.40;3.25;;;;;;;16.30;77.43;101456.63;4807734;29;20410;-54
2022/08/01 09:12:01;;;;;;;4.30;3.33;;;;;;;16.24;78.12;101467.53;4822310;29;20050;-53
2022/08/01 09:14:30;;;;;;;6.03;3.38;;;;;;;16.33;77.33;101466.19;4823105;29;20037;-53
2022/08/01 09:17:22;;;;;;;6.88;3.63;;;;;;;16.26;78.01;101476.22;4825327;29;20038;-49
2022/08/01 09:19:51;;;;;;;4.93;3.30;;;;;;;16.13;78.08;101477.22;4804758;29;20151;-51
2022/08/01 09:22:23;;;;;;;6.28;3.20;;;;;;;16.06;78.50;101477.31;4825331;29;20074;-51
2022/08/01 09:25:10;;;;;;;5.20;3.70;;;;;;;16.31;77.83;101479.06;4822657;29;20074;-51
2022/08/01 09:27:38;;;;;;;6.63;3.40;;;;;;;16.21;77.63;101479.63;4823823;29;20154;-51
2022/08/01 09:30:24;;;;;;;10.60;3.25;;;;;;;16.50;77.06;101472.59;4817115;29;20034;-54
2022/08/01 09:33:08;;;;;;;5.63;3.33;;;;;;;16.31;77.61;101482.59;4806649;29;20050;-53
2022/08/01 09:35:44;;;;;;;4.65;2.95;;;;;;;16.50;76.92;101467.19;4822240;29;20034;-53
2022/08/01 09:38:21;;;;;;;4.80;3.15;;;;;;;16.45;76.57;101469.75;4823331;29;20491;-53
2022/08/01 09:40:58;;;;;;;5.90;3.38;;;;;;;16.52;76.75;101470.47;4809089;29;20544;-53
2022/08/01 09:43:26;;;;;;;5.68;3.63;;;;;;;16.57;76.12;101462.50;4824731;29;20026;-53
2022/08/01 09:45:53;;;;;;;4.95;3.28;;;;;;;16.76;75.84;101468.66;4823222;29;20034;-54
2022/08/01 09:48:21;;;;;;;6.03;3.45;;;;;;;16.67;76.08;101469.22;4824653;29;20050;-53
2022/08/01 09:50:49;;;;;;;3.80;3.10;;;;;;;16.52;76.09;101472.34;4823609;29;20121;-54
2022/08/01 09:53:16;;;;;;;5.28;3.20;;;;;;;16.53;76.35;101472.09;4824443;29;20034;-54
2022/08/01 09:55:44;;;;;;;3.78;2.97;;;;;;;16.31;77.15;101462.84;4823597;29;20496;-53
2022/08/01 09:58:11;;;;;;;5.93;3.25;;;;;;;16.26;77.31;101457.31;4824704;29;20117;-54
2022/08/01 10:00:39;;;;;;;4.50;2.95;;;;;;;16.39;76.77;101459.84;4820952;29;20651;-53
2022/08/01 10:03:25;;;;;;;4.70;3.08;;;;;;;16.43;76.86;101458.31;4822712;29;20134;-53
2022/08/01 10:05:56;;;;;;;7.43;3.10;;;;;;;16.31;76.98;101455.56;4822679;29;20190;-54
2022/08/01 10:08:25;;;;;;;4.43;3.20;;;;;;;16.51;76.31;101454.47;4823455;29;20034;-51
2022/08/01 10:11:11;;;;;;;4.45;3.13;;;;;;;16.54;76.47;101452.13;4823210;29;20088;-51
2022/08/01 10:13:38;;;;;;;4.20;3.00;;;;;;;16.48;76.50;101452.22;4823924;29;20038;-48
2022/08/01 10:16:06;;;;;;;5.53;3.28;;;;;;;16.59;75.71;101446.84;4823215;29;20074;-50
2022/08/01 10:18:34;;;;;;;3.88;3.17;;;;;;;16.34;77.06;101447.03;4822909;29;20033;-51
2022/08/01 10:21:04;;;;;;;5.57;3.42;;;;;;;16.16;77.77;101448.94;4823038;29;20553;-51
2022/08/01 10:23:37;;;;;;;5.97;3.08;;;;;;;16.36;77.02;101447.59;4822773;29;20060;-51
2022/08/01 10:26:06;;;;;;;5.00;3.72;;;;;;;16.32;76.98;101437.47;4823389;29;20117;-50
2022/08/01 10:28:36;;;;;;;4.25;3.33;;;;;;;16.46;76.53;101438.13;4822999;29;20038;-50
2022/08/01 10:31:03;;;;;;;4.85;2.97;;;;;;;16.49;76.26;101443.91;4837318;29;20037;-51
2022/08/01 10:33:30;;;;;;;8.13;3.47;;;;;;;16.62;75.70;101441.00;4823135;29;20034;-50
2022/08/01 10:35:57;;;;;;;4.90;2.80;;;;;;;16.20;77.40;101442.03;4816467;29;20058;-49
2022/08/01 10:38:24;;;;;;;4.55;3.40;;;;;;;16.12;78.18;101451.28;4821874;29;20042;-51
2022/08/01 10:40:53;;;;;;;4.50;3.33;;;;;;;16.20;77.85;101442.03;4812262;29;20388;-51
2022/08/01 10:43:19;;;;;;;6.78;3.08;;;;;;;16.12;78.15;101445.88;4822131;29;20069;-49
2022/08/01 10:45:45;;;;;;;4.55;3.40;;;;;;;16.21;78.27;101447.22;4817390;29;20496;-50
2022/08/01 10:48:27;;;;;;;3.65;2.92;;;;;;;16.43;77.42;101452.91;4804892;29;20043;-48
2022/08/01 10:50:57;;;;;;;3.50;3.08;;;;;;;16.18;78.15;101446.84;4805535;29;20042;-49
2022/08/01 10:53:27;;;;;;;6.55;3.28;;;;;;;16.38;77.21;101450.09;4805141;29;20137;-51
2022/08/01 10:55:56;;;;;;;5.28;3.55;;;;;;;16.35;77.49;101439.75;4806004;29;20035;-51
2022/08/01 10:58:37;;;;;;;6.00;3.30;;;;;;;16.43;77.08;101443.97;4822010;29;20027;-50
2022/08/01 11:01:15;;;;;;;4.05;2.60;;;;;;;16.30;77.65;101447.72;4809764;29;20030;-51
2022/08/01 11:03:59;;;;;;;3.78;2.90;;;;;;;16.36;77.47;101450.31;4813687;29;20018;-51
2022/08/01 11:06:48;;;;;;;5.03;3.50;;;;;;;16.46;77.20;101449.75;4821898;29;20069;-51
2022/08/01 11:09:15;;;;;;;4.13;2.90;;;;;;;16.50;77.04;101450.97;4798093;29;20046;-51
2022/08/01 11:12:03;;;;;;;3.85;3.20;;;;;;;16.60;76.60;101444.97;4822079;29;20396;-51
2022/08/01 11:14:30;;;;;;;4.72;2.92;;;;;;;16.54;76.83;101451.31;4822319;29;20118;-51
2022/08/01 11:17:16;;;;;;;3.65;2.55;;;;;;;16.58;76.64;101450.63;4823241;29;20035;-52
2022/08/01 11:20:05;;;;;;;4.10;3.00;;;;;;;16.60;76.70;101456.63;4814491;29;20035;-51
2022/08/01 11:22:31;;;;;;;9.10;3.08;;;;;;;16.44;76.98;101451.88;4817470;29;20034;-50
2022/08/01 11:24:57;;;;;;;5.95;2.70;;;;;;;16.52;76.88;101459.66;4822829;29;20034;-49
2022/08/01 11:27:30;;;;;;;3.33;2.30;;;;;;;16.56;76.43;101460.84;4822467;29;20559;-50
2022/08/01 11:30:11;;;;;;;4.65;2.78;;;;;;;16.52;76.56;101465.06;4822448;29;20030;-47
2022/08/01 11:32:52;;;;;;;4.20;2.35;;;;;;;16.49;76.63;101459.28;4822740;29;20034;-51
2022/08/01 11:35:23;;;;;;;4.15;2.40;;;;;;;16.59;76.02;101456.84;4822832;29;20107;-51